Time;durP1;ratioP1;P1;durP2;ratioP2;P2;SDS_P1;SDS_P2;PMS_P1;PMS_P2;Temp;Humidity;BMP_temperature;BMP_pressure;BME280_temperature;BME280_humidity;BME280_pressure;Samples;Min_cycle;Max_cycle;Signal;HPM_P1;HPM_P2
2023/07/24 04:34:24;;;;;;;2.55;1.48;;;;;;;17.59;86.87;100378.28;4993107;28;97185;-27
2023/07/24 04:36:50;;;;;;;3.75;1.50;;;;;;;17.62;86.83;100378.00;4997398;28;98113;-29
2023/07/24 04:39:15;;;;;;;5.00;2.13;;;;;;;17.65;86.69;100376.84;4995884;28;101289;-27
2023/07/24 04:41:41;;;;;;;7.20;2.33;;;;;;;17.59;87.22;100375.53;4997687;28;96598;-27
2023/07/24 04:44:06;;;;;;;5.47;2.17;;;;;;;17.62;87.10;100378.84;4998059;28;96810;-27
2023/07/24 04:46:32;;;;;;;5.15;2.60;;;;;;;17.62;86.62;100386.22;4995597;28;99572;-27
2023/07/24 04:48:57;;;;;;;3.55;1.48;;;;;;;17.61;86.23;100371.66;4997479;28;97207;-27
2023/07/24 04:51:22;;;;;;;6.93;1.63;;;;;;;17.60;85.95;100372.66;4997009;28;96767;-27
2023/07/24 04:53:48;;;;;;;5.57;1.63;;;;;;;17.63;86.19;100371.50;4996910;28;96821;-27
2023/07/24 04:56:13;;;;;;;4.68;1.63;;;;;;;17.68;86.01;100377.38;4997112;28;98002;-27
2023/07/24 04:58:38;;;;;;;3.95;1.58;;;;;;;17.68;86.01;100382.00;4996955;28;97221;-27
2023/07/24 05:01:04;;;;;;;3.28;1.63;;;;;;;17.66;85.99;100376.66;4997461;28;97083;-27
2023/07/24 05:03:30;;;;;;;4.38;1.88;;;;;;;17.68;85.76;100382.00;4997362;28;96781;-26
2023/07/24 05:05:58;;;;;;;2.88;1.50;;;;;;;17.71;85.36;100374.34;4996665;28;99184;-27
2023/07/24 05:08:24;;;;;;;3.88;1.63;;;;;;;17.65;85.60;100372.22;4997080;28;99179;-27
2023/07/24 05:10:58;;;;;;;7.35;1.67;;;;;;;17.66;84.60;100378.53;4997074;28;96781;-26
2023/07/24 05:13:24;;;;;;;3.80;1.77;;;;;;;17.65;85.16;100366.72;4995429;28;97903;-27
2023/07/24 05:15:50;;;;;;;2.35;1.50;;;;;;;17.67;85.23;100369.31;4994780;28;99241;-27
2023/07/24 05:18:15;;;;;;;3.28;1.45;;;;;;;17.67;85.13;100364.72;4996991;28;97032;-27
2023/07/24 05:20:52;;;;;;;2.85;1.45;;;;;;;17.68;84.81;100374.63;4996836;28;96487;-26
2023/07/24 05:23:18;;;;;;;3.65;1.63;;;;;;;17.69;84.89;100373.63;4995513;28;96662;-26
2023/07/24 05:25:43;;;;;;;3.33;1.50;;;;;;;17.64;84.48;100370.50;4996394;28;99265;-27
2023/07/24 05:28:09;;;;;;;5.57;1.67;;;;;;;17.68;84.77;100371.03;4996456;28;97769;-27
2023/07/24 05:30:34;;;;;;;2.65;1.40;;;;;;;17.68;84.40;100371.91;4996866;28;96559;-27
2023/07/24 05:33:00;;;;;;;2.83;1.55;;;;;;;17.64;84.58;100365.03;4997336;28;96845;-27
2023/07/24 05:35:26;;;;;;;3.78;1.30;;;;;;;17.71;84.55;100368.00;4995803;28;99354;-27
2023/07/24 05:37:51;;;;;;;7.20;1.65;;;;;;;17.71;84.05;100365.25;4996251;28;99164;-27
2023/07/24 05:40:16;;;;;;;3.53;1.52;;;;;;;17.81;83.98;100372.44;4994749;28;96751;-27
2023/07/24 05:42:43;;;;;;;5.85;2.13;;;;;;;17.87;83.73;100370.09;4996259;28;96641;-27
2023/07/24 05:45:10;;;;;;;2.65;1.25;;;;;;;17.92;83.90;100365.88;4995696;28;99097;-26
2023/07/24 05:47:36;;;;;;;7.70;1.75;;;;;;;18.04;83.54;100361.03;4994752;28;101077;-28
2023/07/24 05:50:02;;;;;;;3.42;1.27;;;;;;;18.17;83.04;100374.38;4996550;28;96713;-27
2023/07/24 05:52:27;;;;;;;3.47;1.80;;;;;;;18.24;82.94;100368.13;4996117;28;96787;-27
2023/07/24 05:54:52;;;;;;;3.75;1.45;;;;;;;18.33;82.61;100380.03;4996107;28;97746;-27
2023/07/24 05:57:18;;;;;;;5.25;1.67;;;;;;;18.38;82.58;100374.09;4996205;28;97803;-27
2023/07/24 05:59:43;;;;;;;3.70;1.67;;;;;;;18.39;82.41;100384.88;4996411;28;96495;-27
2023/07/24 06:02:09;;;;;;;5.03;1.65;;;;;;;18.39;82.56;100378.53;4996299;28;96868;-27
2023/07/24 06:04:35;;;;;;;4.82;1.85;;;;;;;18.39;82.64;100382.13;4995376;28;98101;-27
2023/07/24 06:07:01;;;;;;;5.30;1.85;;;;;;;18.37;82.57;100389.66;4994675;28;100488;-27
2023/07/24 06:09:26;;;;;;;4.78;1.50;;;;;;;18.31;82.92;100382.06;4996156;28;96791;-27
2023/07/24 06:11:52;;;;;;;4.30;1.80;;;;;;;18.35;82.77;100383.50;4995668;28;96802;-27
2023/07/24 06:14:17;;;;;;;2.67;1.60;;;;;;;18.37;82.78;100383.31;4995786;28;97909;-27
2023/07/24 06:16:42;;;;;;;4.93;1.23;;;;;;;18.38;82.22;100391.41;4995926;28;97788;-27
2023/07/24 06:19:08;;;;;;;9.40;1.85;;;;;;;18.33;82.27;100392.88;4995958;28;96534;-27
2023/07/24 06:21:33;;;;;;;3.70;1.50;;;;;;;18.20;82.54;100372.19;4996452;28;96965;-27
2023/07/24 06:23:58;;;;;;;3.13;1.63;;;;;;;18.30;82.26;100387.69;4995417;28;99311;-26
2023/07/24 06:26:24;;;;;;;5.38;1.73;;;;;;;18.44;82.03;100398.13;4995231;28;99143;-27
2023/07/24 06:28:49;;;;;;;3.83;1.73;;;;;;;18.56;81.06;100388.63;4995558;28;96695;-27
2023/07/24 06:31:14;;;;;;;4.85;1.63;;;;;;;18.76;80.04;100399.44;4995763;28;96813;-27
2023/07/24 06:33:40;;;;;;;3.17;1.73;;;;;;;18.86;79.65;100389.28;4995604;28;97358;-27
2023/07/24 06:36:09;;;;;;;8.05;1.65;;;;;;;18.86;79.92;100384.63;4995061;28;97093;-27
2023/07/24 06:38:34;;;;;;;6.07;1.90;;;;;;;18.84;80.05;100399.53;4994277;28;96607;-27
2023/07/24 06:41:00;;;;;;;2.10;1.25;;;;;;;18.76;80.21;100391.19;4995318;28;96540;-27
2023/07/24 06:43:25;;;;;;;3.22;1.05;;;;;;;18.74;80.49;100398.75;4995376;28;97576;-27
2023/07/24 06:45:51;;;;;;;5.15;1.85;;;;;;;18.62;80.16;100382.53;4995388;28;99557;-28
2023/07/24 06:48:16;;;;;;;5.53;1.45;;;;;;;18.59;79.87;100390.19;4995596;28;96610;-26
2023/07/24 06:50:41;;;;;;;4.57;1.52;;;;;;;18.65;80.15;100392.31;4994119;28;96994;-27
2023/07/24 06:53:07;;;;;;;5.15;1.50;;;;;;;18.65;80.21;100395.91;4994232;28;99274;-27
2023/07/24 06:55:32;;;;;;;6.97;1.38;;;;;;;18.66;80.43;100394.03;4995019;28;97909;-26
2023/07/24 06:57:57;;;;;;;8.05;1.67;;;;;;;18.68;80.38;100402.97;4994495;28;96503;-26
2023/07/24 07:00:23;;;;;;;3.95;1.70;;;;;;;18.69;80.43;100391.00;4995499;28;96821;-27
2023/07/24 07:02:48;;;;;;;3.92;1.60;;;;;;;18.72;80.54;100398.91;4994923;28;99327;-27
2023/07/24 07:05:13;;;;;;;5.03;1.35;;;;;;;18.68;80.21;100390.09;4994836;28;99066;-27
2023/07/24 07:07:39;;;;;;;3.83;1.52;;;;;;;18.62;80.58;100385.28;4995319;28;96528;-28
2023/07/24 07:10:05;;;;;;;5.32;2.08;;;;;;;18.71;81.02;100386.22;4995216;28;96895;-27
2023/07/24 07:12:30;;;;;;;4.15;1.65;;;;;;;19.14;80.48;100386.38;4995007;28;98031;-27
2023/07/24 07:14:56;;;;;;;4.78;2.15;;;;;;;19.33;79.19;100386.16;4993325;28;100798;-27
2023/07/24 07:17:21;;;;;;;3.53;1.88;;;;;;;19.34;79.47;100387.03;4994807;28;96567;-27
2023/07/24 07:19:47;;;;;;;4.70;1.77;;;;;;;19.25;79.48;100388.84;4995229;28;96768;-27
2023/07/24 07:22:12;;;;;;;3.53;1.65;;;;;;;19.12;79.87;100382.94;4995093;28;97389;-27
2023/07/24 07:24:37;;;;;;;6.45;2.47;;;;;;;19.14;80.09;100381.75;4993092;28;99115;-28
2023/07/24 07:27:03;;;;;;;4.68;1.80;;;;;;;19.14;80.58;100380.88;4995047;28;96563;-29
2023/07/24 07:29:28;;;;;;;6.53;1.92;;;;;;;19.16;80.09;100387.06;4995006;28;96920;-27
2023/07/24 07:31:53;;;;;;;3.65;1.98;;;;;;;19.01;80.56;100371.19;4995129;28;97347;-26
2023/07/24 07:34:19;;;;;;;6.30;2.40;;;;;;;19.06;80.74;100379.78;4994477;28;97802;-27
2023/07/24 07:36:44;;;;;;;5.38;2.35;;;;;;;19.06;80.61;100373.44;4995070;28;96698;-27
2023/07/24 07:39:09;;;;;;;4.07;2.00;;;;;;;18.92;80.81;100383.13;4994846;28;96752;-27
2023/07/24 07:41:35;;;;;;;4.40;2.15;;;;;;;18.80;81.32;100374.28;4994052;28;97398;-29
2023/07/24 07:44:00;;;;;;;5.97;2.75;;;;;;;18.84;81.65;100375.69;4994451;28;98426;-27
2023/07/24 07:46:26;;;;;;;4.35;2.35;;;;;;;18.83;81.30;100375.84;4994678;28;96604;-28
2023/07/24 07:48:51;;;;;;;5.88;2.20;;;;;;;18.78;81.46;100376.34;4994579;28;96553;-30
2023/07/24 07:51:16;;;;;;;4.68;2.38;;;;;;;18.81;81.08;100381.50;4994227;28;98747;-27
2023/07/24 07:53:42;;;;;;;6.90;2.65;;;;;;;18.84;81.14;100388.56;4994400;28;97816;-27
2023/07/24 07:56:08;;;;;;;5.18;2.50;;;;;;;18.93;81.39;100379.38;4994541;28;96656;-27
2023/07/24 07:58:33;;;;;;;3.78;2.28;;;;;;;19.14;80.78;100384.50;4993340;28;96794;-27
2023/07/24 08:01:03;;;;;;;4.20;2.15;;;;;;;19.66;79.78;100386.31;4994302;28;97576;-28
2023/07/24 08:03:29;;;;;;;5.07;2.40;;;;;;;20.01;77.05;100373.44;4992725;28;101459;-27
2023/07/24 08:05:57;;;;;;;5.57;2.30;;;;;;;20.09;76.88;100381.69;4994166;28;96590;-27
2023/07/24 08:08:23;;;;;;;8.30;2.58;;;;;;;20.37;76.99;100383.13;4996025;28;96816;-27
2023/07/24 08:10:48;;;;;;;5.00;2.35;;;;;;;20.27;75.61;100362.31;4997823;28;97909;-27
2023/07/24 08:13:13;;;;;;;5.45;2.08;;;;;;;19.97;76.11;100366.53;4997788;28;97524;-28
2023/07/24 08:15:39;;;;;;;3.58;2.20;;;;;;;19.82;77.09;100371.81;4997892;28;96571;-27
2023/07/24 08:18:05;;;;;;;5.05;2.33;;;;;;;19.71;77.39;100372.97;4998087;28;96803;-28
2023/07/24 08:20:31;;;;;;;7.93;2.38;;;;;;;19.61;77.19;100369.47;4996209;28;100951;-28
2023/07/24 08:22:56;;;;;;;5.70;2.95;;;;;;;19.55;77.40;100375.63;4997853;28;97817;-28
2023/07/24 08:25:21;;;;;;;6.38;1.88;;;;;;;19.55;77.56;100371.00;4998225;28;96767;-28
2023/07/24 08:27:47;;;;;;;5.13;2.40;;;;;;;19.46;77.46;100367.34;4997937;28;96796;-27
2023/07/24 08:30:12;;;;;;;4.35;2.10;;;;;;;19.48;77.70;100375.44;4997122;28;97921;-27
2023/07/24 08:32:39;;;;;;;3.83;2.35;;;;;;;19.71;75.99;100376.59;4997387;28;97954;-28
2023/07/24 08:35:05;;;;;;;3.40;1.85;;;;;;;20.03;74.88;100365.88;4995493;28;96879;-27
2023/07/24 08:37:31;;;;;;;4.32;2.08;;;;;;;20.25;74.06;100370.72;4996167;28;96896;-27
2023/07/24 08:39:56;;;;;;;5.07;2.10;;;;;;;20.28;73.16;100372.28;4997100;28;97317;-27
2023/07/24 08:42:22;;;;;;;5.07;1.90;;;;;;;20.19;74.23;100367.78;4997452;28;97303;-28
2023/07/24 08:44:48;;;;;;;3.92;1.75;;;;;;;20.08;74.23;100368.97;4995945;28;96562;-27
2023/07/24 08:47:15;;;;;;;4.93;2.05;;;;;;;20.08;74.68;100369.84;4996515;28;96875;-26
2023/07/24 08:49:42;;;;;;;3.95;1.70;;;;;;;19.96;75.34;100359.34;4997203;28;97927;-28
2023/07/24 08:52:08;;;;;;;3.17;1.85;;;;;;;20.03;75.33;100366.72;4995536;28;101291;-28
2023/07/24 08:54:37;;;;;;;4.40;2.20;;;;;;;20.08;74.83;100355.22;4995146;28;96852;-27
2023/07/24 08:57:06;;;;;;;2.38;1.55;;;;;;;20.20;74.41;100359.38;4995952;28;96810;-27
2023/07/24 08:59:31;;;;;;;5.50;1.90;;;;;;;20.25;74.23;100356.97;4995353;28;101474;-27
2023/07/24 09:01:57;;;;;;;3.67;2.00;;;;;;;20.53;73.59;100351.16;4996898;28;97889;-28
2023/07/24 09:04:23;;;;;;;3.78;2.03;;;;;;;20.50;73.08;100357.88;4997360;28;96589;-27
2023/07/24 09:06:50;;;;;;;5.30;2.35;;;;;;;20.39;72.97;100338.09;4997066;28;96978;-27
2023/07/24 09:09:16;;;;;;;4.38;2.38;;;;;;;20.52;73.76;100341.16;4995305;28;101156;-28
2023/07/24 09:11:53;;;;;;;4.03;2.20;;;;;;;20.69;72.81;100342.94;4995741;28;100905;-27
2023/07/24 09:14:22;;;;;;;4.93;2.55;;;;;;;20.60;72.74;100338.47;4995559;28;96482;-27
2023/07/24 09:16:47;;;;;;;2.75;1.80;;;;;;;20.71;73.06;100329.88;4997252;28;96828;-27
2023/07/24 09:19:21;;;;;;;5.40;2.03;;;;;;;21.06;72.29;100340.66;4995434;28;98018;-27
2023/07/24 09:21:47;;;;;;;5.55;2.35;;;;;;;21.43;69.79;100315.28;4996413;28;98866;-27
2023/07/24 09:24:14;;;;;;;3.28;2.13;;;;;;;21.47;68.68;100321.28;4996986;28;96612;-27
2023/07/24 09:26:53;;;;;;;5.00;2.15;;;;;;;21.47;68.63;100319.38;4995465;28;96821;-27
2023/07/24 09:29:19;;;;;;;4.63;1.85;;;;;;;21.58;68.61;100331.91;4995025;28;100997;-26
2023/07/24 09:31:45;;;;;;;8.15;2.25;;;;;;;21.46;69.28;100323.19;4995078;28;101128;-27
2023/07/24 09:34:17;;;;;;;3.90;2.22;;;;;;;21.32;69.47;100334.91;4996046;28;96791;-28
2023/07/24 09:36:44;;;;;;;6.22;2.47;;;;;;;21.16;70.14;100330.28;4995559;28;96849;-27
2023/07/24 09:39:11;;;;;;;5.03;1.85;;;;;;;21.05;70.23;100326.03;4995033;28;101332;-27
2023/07/24 09:41:40;;;;;;;6.30;2.20;;;;;;;21.06;70.92;100327.75;4996357;28;97473;-26
2023/07/24 09:44:06;;;;;;;5.43;2.50;;;;;;;21.11;70.88;100333.56;4994743;28;96615;-27
2023/07/24 09:46:32;;;;;;;3.95;1.92;;;;;;;21.12;71.55;100334.47;4995024;28;96949;-27
2023/07/24 09:48:58;;;;;;;9.55;2.40;;;;;;;21.05;70.90;100331.53;4996012;28;99251;-31
2023/07/24 09:51:23;;;;;;;7.82;2.55;;;;;;;20.98;71.31;100334.13;4996222;28;97794;-27
2023/07/24 09:54:07;;;;;;;5.22;2.63;;;;;;;20.90;70.89;100336.03;4996090;28;98624;-26
2023/07/24 09:56:33;;;;;;;3.78;1.70;;;;;;;20.79;71.37;100338.13;4995001;28;96881;-27
2023/07/24 09:59:00;;;;;;;5.53;2.35;;;;;;;20.72;71.35;100334.34;4995541;28;99345;-27
2023/07/24 10:01:27;;;;;;;3.88;2.03;;;;;;;20.50;70.71;100332.25;4995017;28;101079;-27
2023/07/24 10:03:53;;;;;;;3.65;1.80;;;;;;;20.32;71.95;100330.50;4996087;28;96676;-26
2023/07/24 10:06:18;;;;;;;4.50;1.85;;;;;;;20.26;72.20;100333.06;4994773;28;96843;-27
2023/07/24 10:08:44;;;;;;;7.75;2.08;;;;;;;20.07;72.40;100324.13;4995274;28;99563;-27
2023/07/24 10:11:12;;;;;;;4.28;1.98;;;;;;;20.04;73.29;100340.94;4995631;28;99243;-27
2023/07/24 10:13:38;;;;;;;3.80;2.10;;;;;;;20.02;73.33;100339.41;4994681;28;96503;-26
2023/07/24 10:16:06;;;;;;;5.00;2.45;;;;;;;20.00;73.70;100333.19;4994604;28;96634;-27
2023/07/24 10:18:33;;;;;;;4.53;2.20;;;;;;;20.03;74.36;100339.25;4994341;28;101106;-27
2023/07/24 10:21:07;;;;;;;5.47;1.90;;;;;;;20.09;74.14;100337.69;4995625;28;98285;-27
2023/07/24 10:23:50;;;;;;;3.63;1.95;;;;;;;20.15;74.24;100315.88;4995993;28;96490;-27
2023/07/24 10:26:16;;;;;;;4.55;1.77;;;;;;;20.25;74.53;100337.72;4994888;28;96823;-27
2023/07/24 10:28:42;;;;;;;4.13;1.60;;;;;;;20.24;74.22;100330.50;4995941;28;97728;-27
2023/07/24 10:31:28;;;;;;;4.80;1.88;;;;;;;20.65;73.53;100329.69;4994619;28;97239;-27
2023/07/24 10:33:55;;;;;;;2.40;1.50;;;;;;;20.91;73.08;100327.59;4993246;28;96609;-27
2023/07/24 10:36:22;;;;;;;4.03;1.60;;;;;;;21.36;71.40;100328.00;4995466;28;96660;-27
2023/07/24 10:38:57;;;;;;;2.25;1.30;;;;;;;21.29;70.71;100313.22;4995342;28;98157;-27
2023/07/24 10:41:37;;;;;;;2.83;1.20;;;;;;;21.12;70.74;100326.19;4994022;28;100907;-26
2023/07/24 10:44:03;;;;;;;4.65;1.70;;;;;;;20.91;70.92;100321.25;4995729;28;96496;-27
2023/07/24 10:46:39;;;;;;;4.05;1.90;;;;;;;20.72;72.23;100317.81;4994215;28;96850;-26
2023/07/24 10:49:05;;;;;;;3.22;1.80;;;;;;;20.68;72.25;100318.34;4993563;28;100839;-26
2023/07/24 10:51:37;;;;;;;6.07;1.83;;;;;;;20.69;72.95;100329.19;4995738;28;97800;-26
2023/07/24 10:54:03;;;;;;;2.45;1.67;;;;;;;21.13;72.61;100336.16;4993965;28;96670;-26
2023/07/24 10:56:29;;;;;;;4.60;2.55;;;;;;;21.04;71.26;100320.69;4993949;28;96820;-27
2023/07/24 10:58:54;;;;;;;3.25;1.77;;;;;;;21.21;71.46;100327.88;4994301;28;99536;-27
2023/07/24 11:01:20;;;;;;;3.30;1.95;;;;;;;21.12;71.88;100340.81;4995019;28;97230;-26
2023/07/24 11:03:46;;;;;;;5.15;2.22;;;;;;;20.99;71.99;100333.09;4995795;28;96568;-27
2023/07/24 11:06:16;;;;;;;3.90;2.15;;;;;;;20.87;71.98;100348.25;4993930;28;96874;-28
2023/07/24 11:08:42;;;;;;;5.07;1.80;;;;;;;20.62;71.93;100343.78;4995065;28;97994;-28
2023/07/24 11:11:08;;;;;;;3.60;1.90;;;;;;;20.63;73.23;100340.88;4995282;28;96674;-27
2023/07/24 11:13:34;;;;;;;5.53;2.33;;;;;;;20.74;73.06;100329.53;4992596;28;96641;-27
2023/07/24 11:16:07;;;;;;;5.63;1.92;;;;;;;20.89;72.83;100337.06;4992606;28;96804;-26
2023/07/24 11:18:43;;;;;;;3.45;2.17;;;;;;;20.90;72.56;100341.53;4990800;28;101013;-27
2023/07/24 11:21:09;;;;;;;4.97;2.00;;;;;;;20.77;72.77;100342.06;4991072;28;101467;-27
2023/07/24 11:23:35;;;;;;;2.95;2.10;;;;;;;20.66;72.88;100339.66;4990378;28;97379;-26
2023/07/24 11:26:01;;;;;;;3.22;2.13;;;;;;;20.71;72.53;100346.38;4986436;28;96931;-27
2023/07/24 11:28:26;;;;;;;5.03;2.42;;;;;;;21.04;71.00;100353.72;4977713;28;99311;-27
2023/07/24 11:30:51;;;;;;;4.30;2.00;;;;;;;21.47;70.19;100357.09;4992383;28;97262;-27
2023/07/24 11:33:17;;;;;;;2.42;1.60;;;;;;;21.96;68.73;100349.47;4992332;28;96529;-27
2023/07/24 11:35:43;;;;;;;2.65;1.58;;;;;;;21.90;68.44;100346.56;4992240;28;96948;-26
2023/07/24 11:38:09;;;;;;;4.03;2.00;;;;;;;21.73;68.63;100351.31;4991850;28;99342;-26
2023/07/24 11:40:41;;;;;;;4.68;1.95;;;;;;;21.60;68.40;100351.91;4990945;28;101016;-27
2023/07/24 11:43:17;;;;;;;;;;;;;;;21.54;67.31;100355.34;4990455;28;96790;-27
2023/07/24 11:45:43;;;;;;;2.67;1.40;;;;;;;21.50;67.96;100356.72;4990911;28;96767;-27
2023/07/24 11:48:11;;;;;;;3.95;1.92;;;;;;;21.36;69.07;100350.06;4990034;28;100876;-28
2023/07/24 11:50:42;;;;;;;2.75;1.83;;;;;;;21.31;69.18;100341.44;4990614;28;99857;-30
2023/07/24 11:53:18;;;;;;;;;;;;;;;21.24;67.98;100357.84;4991337;28;96811;-28
2023/07/24 11:55:43;;;;;;;4.22;1.65;;;;;;;21.16;69.72;100352.31;4992240;28;96768;-27
2023/07/24 11:58:14;;;;;;;2.63;1.60;;;;;;;21.17;69.35;100363.19;4991365;28;99341;-27
2023/07/24 12:00:40;;;;;;;4.32;2.03;;;;;;;21.18;69.55;100353.88;4990409;28;100771;-27
2023/07/24 12:03:07;;;;;;;3.25;1.42;;;;;;;21.23;68.68;100344.22;4992176;28;96688;-27
2023/07/24 12:05:43;;;;;;;2.35;1.52;;;;;;;21.32;68.95;100357.81;4992053;28;96859;-27
2023/07/24 12:08:08;;;;;;;6.68;1.70;;;;;;;21.37;68.66;100354.53;4990125;28;101111;-27
2023/07/24 12:10:37;;;;;;;5.75;1.88;;;;;;;21.37;68.91;100343.50;4991600;28;99206;-27
2023/07/24 12:13:02;;;;;;;3.53;1.70;;;;;;;21.36;68.66;100344.53;4989741;28;96953;-27
2023/07/24 12:15:28;;;;;;;4.03;1.73;;;;;;;21.26;68.29;100357.63;4991779;28;96787;-27
2023/07/24 12:17:54;;;;;;;3.33;1.80;;;;;;;21.10;68.76;100345.63;4991791;28;98009;-27
2023/07/24 12:20:19;;;;;;;4.93;2.10;;;;;;;21.03;69.20;100341.00;4991517;28;98728;-28
2023/07/24 12:22:45;;;;;;;3.67;2.08;;;;;;;21.03;70.13;100354.78;4991887;28;96839;-26
2023/07/24 12:25:10;;;;;;;3.35;1.90;;;;;;;20.87;69.80;100352.91;4991644;28;96752;-26
2023/07/24 12:27:37;;;;;;;3.30;1.50;;;;;;;20.76;69.92;100346.72;4991554;28;97910;-27
2023/07/24 12:30:03;;;;;;;2.20;1.15;;;;;;;20.70;70.48;100357.56;4990465;28;100994;-27
2023/07/24 12:32:28;;;;;;;3.55;1.75;;;;;;;20.70;70.86;100357.56;4991653;28;96491;-27
2023/07/24 12:34:54;;;;;;;5.20;1.55;;;;;;;20.63;71.15;100348.28;4991175;28;96784;-27
2023/07/24 12:37:20;;;;;;;2.70;1.15;;;;;;;20.61;71.26;100353.09;4990731;28;99803;-27
2023/07/24 12:39:46;;;;;;;2.90;1.13;;;;;;;20.64;71.74;100367.38;4989925;28;101061;-26
2023/07/24 12:42:13;;;;;;;3.70;1.48;;;;;;;20.59;71.36;100347.75;4990076;28;97106;-26
2023/07/24 12:44:38;;;;;;;2.50;1.35;;;;;;;20.53;71.63;100343.75;4989941;28;96852;-27
2023/07/24 12:47:04;;;;;;;2.63;1.20;;;;;;;20.54;71.46;100358.38;4991155;28;99235;-26
2023/07/24 12:49:29;;;;;;;1.52;1.00;;;;;;;20.44;71.62;100352.19;4989750;28;101226;-27
2023/07/24 12:51:55;;;;;;;1.90;1.30;;;;;;;20.47;71.81;100357.34;4991061;28;96656;-27
2023/07/24 12:54:22;;;;;;;1.67;0.80;;;;;;;20.37;71.67;100366.63;4991670;28;96911;-27
2023/07/24 12:56:48;;;;;;;1.80;1.10;;;;;;;20.34;72.35;100368.88;4992987;28;99298;-27
2023/07/24 12:59:13;;;;;;;1.50;1.10;;;;;;;20.32;72.30;100359.91;4994419;28;96976;-27
2023/07/24 13:01:38;;;;;;;1.95;0.95;;;;;;;20.43;71.91;100365.09;4994119;28;96577;-26
2023/07/24 13:04:04;;;;;;;1.42;1.00;;;;;;;20.55;71.61;100361.00;4994797;28;96988;-27
2023/07/24 13:06:29;;;;;;;1.38;0.98;;;;;;;20.82;71.30;100355.31;4994358;28;97340;-27
2023/07/24 13:08:55;;;;;;;1.55;0.98;;;;;;;20.93;70.05;100357.72;4994472;28;97321;-27
2023/07/24 13:11:21;;;;;;;1.60;1.00;;;;;;;21.07;69.66;100364.41;4994499;28;96581;-27
2023/07/24 13:13:46;;;;;;;1.70;1.00;;;;;;;21.38;69.40;100370.00;4992985;28;96794;-26
2023/07/24 13:16:12;;;;;;;1.70;1.00;;;;;;;21.37;69.18;100369.16;4994269;28;97921;-26
2023/07/24 13:18:37;;;;;;;2.55;1.15;;;;;;;21.34;68.85;100358.50;4992783;28;97887;-27
2023/07/24 13:21:03;;;;;;;2.03;1.00;;;;;;;21.23;68.23;100374.53;4994357;28;96791;-28
2023/07/24 13:23:28;;;;;;;2.80;1.02;;;;;;;21.05;68.99;100370.09;4993280;28;97015;-28
2023/07/24 13:25:54;;;;;;;1.27;0.80;;;;;;;20.88;69.38;100361.00;4993461;28;98420;-27
2023/07/24 13:28:19;;;;;;;2.78;1.02;;;;;;;20.78;69.55;100363.94;4994164;28;96922;-27
2023/07/24 13:30:45;;;;;;;1.40;0.95;;;;;;;20.71;69.22;100360.16;4994241;28;96695;-27
2023/07/24 13:33:11;;;;;;;7.50;0.90;;;;;;;20.62;69.40;100366.69;4992771;28;97024;-27
2023/07/24 13:35:37;;;;;;;1.73;0.77;;;;;;;20.64;70.14;100370.13;4993434;28;97459;-26
2023/07/24 13:38:02;;;;;;;3.00;0.90;;;;;;;20.60;70.72;100374.25;4990522;28;100885;-31
2023/07/24 13:40:28;;;;;;;1.65;0.77;;;;;;;20.58;70.98;100387.31;4991998;28;96608;-32
2023/07/24 13:42:53;;;;;;;1.08;0.50;;;;;;;20.54;71.59;100378.50;4992101;28;97015;-28
2023/07/24 13:45:18;;;;;;;2.58;0.70;;;;;;;20.53;71.04;100384.19;4991554;28;98024;-27
2023/07/24 13:47:44;;;;;;;1.88;0.77;;;;;;;20.68;70.82;100390.75;4991721;28;97819;-27
2023/07/24 13:50:09;;;;;;;1.73;0.80;;;;;;;20.77;70.74;100397.97;4991043;28;97161;-33
2023/07/24 13:52:35;;;;;;;2.05;0.85;;;;;;;20.70;70.57;100396.94;4992187;28;96975;-31
2023/07/24 13:55:00;;;;;;;1.73;0.75;;;;;;;20.51;70.48;100392.59;4993359;28;99499;-27
2023/07/24 13:57:26;;;;;;;2.95;0.90;;;;;;;20.35;70.46;100390.72;4993213;28;98125;-27
2023/07/24 13:59:51;;;;;;;3.67;0.75;;;;;;;20.35;70.38;100398.06;4993867;28;96529;-28
2023/07/24 14:02:16;;;;;;;1.95;0.68;;;;;;;20.39;70.57;100388.47;4993795;28;96869;-27
2023/07/24 14:04:42;;;;;;;2.35;0.90;;;;;;;20.55;70.48;100405.03;4993507;28;98244;-27
2023/07/24 14:07:07;;;;;;;2.38;0.65;;;;;;;20.56;70.32;100401.22;4992510;28;97735;-27
2023/07/24 14:09:34;;;;;;;1.73;0.80;;;;;;;20.49;69.97;100413.91;4993652;28;96500;-27
2023/07/24 14:12:00;;;;;;;1.20;0.60;;;;;;;20.35;71.02;100396.22;4993626;28;96804;-27
2023/07/24 14:14:26;;;;;;;1.85;0.90;;;;;;;20.28;71.62;100405.28;4992710;28;97510;-28
2023/07/24 14:16:51;;;;;;;2.20;0.80;;;;;;;20.17;71.79;100411.97;4993080;28;99490;-26
2023/07/24 14:19:17;;;;;;;2.15;0.52;;;;;;;20.12;71.51;100419.88;4991736;28;96787;-26
2023/07/24 14:21:43;;;;;;;0.45;0.43;;;;;;;20.04;71.64;100428.06;4993540;28;96819;-26
2023/07/24 14:24:08;;;;;;;1.95;0.68;;;;;;;20.00;71.58;100426.69;4993465;28;97441;-27
2023/07/24 14:26:36;;;;;;;1.27;0.60;;;;;;;19.99;71.40;100427.72;4993148;28;97834;-27
2023/07/24 14:29:01;;;;;;;2.63;0.80;;;;;;;19.94;71.11;100429.06;4993101;28;96580;-26
2023/07/24 14:31:26;;;;;;;3.47;0.85;;;;;;;20.01;70.91;100439.41;4993317;28;96828;-27
2023/07/24 14:33:52;;;;;;;1.75;0.73;;;;;;;20.05;70.79;100438.06;4992440;28;98896;-31
2023/07/24 14:36:17;;;;;;;2.35;0.60;;;;;;;20.10;70.77;100432.94;4990757;28;100717;-27
2023/07/24 14:38:43;;;;;;;3.22;0.70;;;;;;;20.35;70.68;100433.84;4990465;28;97062;-28
2023/07/24 14:41:08;;;;;;;0.95;0.60;;;;;;;20.36;69.30;100444.69;4991088;28;96946;-27
2023/07/24 14:43:33;;;;;;;1.58;0.95;;;;;;;20.32;69.63;100448.78;4990587;28;98090;-26
2023/07/24 14:45:59;;;;;;;2.55;0.60;;;;;;;20.34;69.47;100456.88;4990836;28;97247;-29
2023/07/24 14:48:24;;;;;;;1.63;0.57;;;;;;;20.25;69.31;100458.75;4990452;28;96707;-32
2023/07/24 14:50:50;;;;;;;1.10;0.43;;;;;;;20.21;69.50;100465.59;4990404;28;97129;-28
2023/07/24 14:53:15;;;;;;;1.92;0.73;;;;;;;20.14;70.07;100472.78;4992373;28;97505;-27
2023/07/24 14:55:40;;;;;;;0.63;0.50;;;;;;;19.94;70.74;100473.06;4993026;28;97096;-26
2023/07/24 14:58:06;;;;;;;1.63;0.55;;;;;;;19.65;72.72;100473.41;4992599;28;96616;-27
2023/07/24 15:00:32;;;;;;;2.35;0.70;;;;;;;19.51;73.72;100476.75;4992977;28;96816;-27
2023/07/24 15:02:57;;;;;;;2.85;0.55;;;;;;;19.40;74.13;100494.38;4990570;28;100938;-27
2023/07/24 15:05:23;;;;;;;0.85;0.40;;;;;;;19.33;75.15;100485.03;4992709;28;97246;-27
2023/07/24 15:07:48;;;;;;;0.68;0.30;;;;;;;19.36;74.75;100492.09;4992949;28;96726;-27
2023/07/24 15:10:13;;;;;;;1.55;0.68;;;;;;;19.29;74.90;100491.88;4992784;28;96788;-26
2023/07/24 15:12:39;;;;;;;1.73;0.50;;;;;;;19.27;74.45;100496.66;4992534;28;97403;-27
2023/07/24 15:15:05;;;;;;;1.20;0.57;;;;;;;19.20;74.44;100487.34;4992539;28;97785;-26
2023/07/24 15:17:30;;;;;;;3.20;0.30;;;;;;;19.10;73.63;100490.19;4990323;28;96595;-27
2023/07/24 15:19:55;;;;;;;1.08;0.38;;;;;;;19.15;73.42;100497.94;4992974;28;96728;-26
2023/07/24 15:22:22;;;;;;;1.00;0.35;;;;;;;19.16;73.53;100495.00;4992237;28;99476;-28
2023/07/24 15:24:48;;;;;;;0.30;0.30;;;;;;;19.21;72.98;100498.16;4990944;28;100981;-27
2023/07/24 15:27:13;;;;;;;2.50;0.50;;;;;;;19.15;72.49;100495.19;4991821;28;96678;-28
2023/07/24 15:29:39;;;;;;;0.73;0.30;;;;;;;19.23;72.36;100503.47;4992502;28;96781;-27
2023/07/24 15:32:05;;;;;;;1.00;0.40;;;;;;;19.34;71.55;100507.88;4992161;28;98072;-33
2023/07/24 15:34:30;;;;;;;2.85;0.52;;;;;;;19.37;71.14;100513.91;4990186;28;101880;-27
2023/07/24 15:36:56;;;;;;;0.52;0.22;;;;;;;19.29;70.24;100516.59;4991916;28;96596;-26
2023/07/24 15:39:21;;;;;;;0.85;0.20;;;;;;;19.22;70.73;100518.25;4992155;28;96705;-26
2023/07/24 15:41:47;;;;;;;0.30;0.10;;;;;;;19.14;69.61;100524.53;4992048;28;99275;-26
2023/07/24 15:44:12;;;;;;;1.65;0.10;;;;;;;19.10;69.24;100529.47;4992631;28;97987;-26
2023/07/24 15:46:37;;;;;;;0.40;0.10;;;;;;;19.03;69.74;100533.00;4992047;28;96459;-27
2023/07/24 15:49:03;;;;;;;0.30;0.15;;;;;;;18.94;68.96;100526.56;4992217;28;96830;-28
2023/07/24 15:51:29;;;;;;;1.70;0.35;;;;;;;19.02;69.78;100531.25;4991661;28;98013;-29
2023/07/24 15:53:55;;;;;;;1.23;0.47;;;;;;;19.06;69.77;100527.19;4990339;28;100989;-28